createdAt,value
2022-07-28T00:00:29.379Z,6.95
2022-07-28T00:00:59.521Z,6.95
2022-07-28T00:01:30.642Z,6.88
2022-07-28T00:02:01.731Z,6.88
2022-07-28T00:02:32.725Z,6.98
2022-07-28T00:03:03.699Z,7.08
2022-07-28T00:03:34.655Z,7.08
2022-07-28T00:04:06.423Z,7.08
2022-07-28T00:04:36.661Z,7.08
2022-07-28T00:05:07.935Z,7.08
2022-07-28T00:05:38.635Z,7.08
2022-07-28T00:06:09.513Z,7.08
2022-07-28T00:06:40.685Z,7.08
2022-07-28T00:07:11.629Z,7.17
2022-07-28T00:07:42.562Z,7.27
2022-07-28T00:08:13.638Z,7.27
2022-07-28T00:08:44.606Z,7.27
2022-07-28T00:09:15.789Z,7.17
2022-07-28T00:09:46.658Z,7.17
2022-07-28T00:10:17.966Z,7.17
2022-07-28T00:10:48.644Z,7.34
2022-07-28T00:11:19.571Z,7.34
2022-07-28T00:11:54.504Z,7.34
2022-07-28T00:12:21.649Z,7.34
2022-07-28T00:12:52.604Z,7.34
2022-07-28T00:13:23.623Z,7.34
2022-07-28T00:13:54.554Z,7.52
2022-07-28T00:14:25.678Z,7.42
2022-07-28T00:14:56.728Z,7.42
2022-07-28T00:15:29.306Z,7.42
2022-07-28T00:15:58.619Z,7.42
2022-07-28T00:16:29.593Z,7.42
2022-07-28T00:17:00.721Z,7.42
2022-07-28T00:17:31.808Z,7.33
2022-07-28T00:18:02.595Z,7.33
2022-07-28T00:18:33.603Z,7.33
2022-07-28T00:19:04.654Z,7.33
2022-07-28T00:19:35.634Z,7.41
2022-07-28T00:20:07.171Z,7.41
2022-07-28T00:20:37.721Z,7.41
2022-07-28T00:21:08.575Z,7.41
2022-07-28T00:21:39.598Z,7.23
2022-07-28T00:22:10.742Z,7.23
2022-07-28T00:22:41.708Z,7.23
2022-07-28T00:23:12.615Z,7.41
2022-07-28T00:23:43.663Z,7.41
2022-07-28T00:24:15.277Z,7.41
2022-07-28T00:24:45.735Z,7.41
2022-07-28T00:25:16.972Z,7.41
2022-07-28T00:25:47.731Z,7.31
2022-07-28T00:26:18.615Z,7.31
2022-07-28T00:26:49.671Z,7.31
2022-07-28T00:27:20.675Z,7.31
2022-07-28T00:27:51.673Z,7.31
2022-07-28T00:28:22.634Z,7.31
2022-07-28T00:28:53.644Z,7.31
2022-07-28T00:29:24.680Z,7.23
2022-07-28T00:29:55.719Z,7.23
2022-07-28T00:30:27.216Z,7.23
2022-07-28T00:30:57.758Z,7.23
2022-07-28T00:31:28.767Z,7.23
2022-07-28T00:31:59.686Z,7.31
2022-07-28T00:32:30.704Z,7.13
2022-07-28T00:33:01.699Z,7.13
2022-07-28T00:33:32.707Z,7.21
2022-07-28T00:34:03.705Z,7.21
2022-07-28T00:34:34.725Z,7.21
2022-07-28T00:35:08.058Z,7.21
2022-07-28T00:35:37.473Z,7.21
2022-07-28T00:36:08.829Z,7.21
2022-07-28T00:36:38.658Z,7.21
2022-07-28T00:37:14.432Z,7.21
2022-07-28T00:37:40.688Z,7.11
2022-07-28T00:38:11.655Z,7.11
2022-07-28T00:38:44.315Z,7.11
2022-07-28T00:39:13.699Z,7.02
2022-07-28T00:39:44.632Z,7.02
2022-07-28T00:40:16.254Z,6.92
2022-07-28T00:40:46.719Z,6.92
2022-07-28T00:41:17.572Z,6.92
2022-07-28T00:41:48.696Z,6.92
2022-07-28T00:42:19.699Z,6.99
2022-07-28T00:42:50.797Z,6.99
2022-07-28T00:43:21.663Z,6.99
2022-07-28T00:43:52.650Z,6.99
2022-07-28T00:44:23.659Z,7.15
2022-07-28T00:44:54.634Z,7.15
2022-07-28T00:45:26.122Z,7.15
2022-07-28T00:45:56.656Z,7.05
2022-07-28T00:46:27.700Z,7.05
2022-07-28T00:46:58.761Z,7.05
2022-07-28T00:47:33.750Z,7.05
2022-07-28T00:48:00.698Z,7.05
2022-07-28T00:48:31.899Z,7.05
2022-07-28T00:49:02.722Z,7.05
2022-07-28T00:49:33.750Z,7.05
2022-07-28T00:50:05.223Z,6.96
2022-07-28T00:50:35.787Z,6.96
2022-07-28T00:51:06.751Z,7.12
2022-07-28T00:51:37.762Z,7.12
2022-07-28T00:52:08.754Z,7.12
2022-07-28T00:52:39.793Z,7.02
2022-07-28T00:53:10.737Z,7.02
2022-07-28T00:53:41.678Z,7.02
2022-07-28T00:54:12.982Z,7.02
2022-07-28T00:54:43.660Z,7.02
2022-07-28T00:55:15.254Z,7.02
2022-07-28T00:56:05.378Z,7.02
2022-07-28T00:56:16.623Z,7.02
2022-07-28T00:56:47.729Z,7.02
2022-07-28T00:57:18.753Z,7.02
2022-07-28T00:57:49.815Z,6.93
2022-07-28T00:58:20.870Z,6.93
2022-07-28T00:58:51.704Z,6.93
2022-07-28T00:59:22.704Z,6.93
2022-07-28T00:59:53.731Z,6.83
2022-07-28T01:00:25.252Z,6.83
2022-07-28T01:00:55.776Z,6.83
2022-07-28T01:01:26.866Z,6.73
2022-07-28T01:01:57.875Z,6.73
2022-07-28T01:02:28.977Z,6.73
2022-07-28T01:02:59.899Z,6.73
2022-07-28T01:03:30.738Z,6.73
2022-07-28T01:04:01.738Z,6.73
2022-07-28T01:04:32.733Z,6.73
2022-07-28T01:05:04.909Z,6.90
2022-07-28T01:05:43.302Z,6.90
2022-07-28T01:06:05.786Z,6.90
2022-07-28T01:06:36.812Z,6.90
2022-07-28T01:07:08.611Z,6.90
2022-07-28T01:07:38.776Z,6.90
2022-07-28T01:08:09.802Z,6.90
2022-07-28T01:08:40.797Z,6.90
2022-07-28T01:09:11.808Z,6.90
2022-07-28T01:09:42.808Z,6.90
2022-07-28T01:10:14.197Z,6.80
2022-07-28T01:10:44.823Z,6.80
2022-07-28T01:11:15.962Z,6.80
2022-07-28T01:11:46.679Z,6.80
2022-07-28T01:12:17.771Z,6.80
2022-07-28T01:12:48.781Z,6.80
2022-07-28T01:13:19.784Z,6.80
2022-07-28T01:13:50.876Z,6.80
2022-07-28T01:14:21.806Z,6.70
2022-07-28T01:14:52.799Z,6.70
2022-07-28T01:15:24.265Z,6.80
2022-07-28T01:15:54.882Z,6.80
2022-07-28T01:16:25.959Z,6.80
2022-07-28T01:16:56.764Z,6.80
2022-07-28T01:17:27.795Z,6.80
2022-07-28T01:17:58.855Z,6.80
2022-07-28T01:18:29.852Z,6.90
2022-07-28T01:19:00.893Z,6.90
2022-07-28T01:19:31.918Z,6.90
2022-07-28T01:20:03.098Z,6.90
2022-07-28T01:20:33.778Z,6.90
2022-07-28T01:21:04.821Z,6.90
2022-07-28T01:21:35.936Z,6.90
2022-07-28T01:22:06.825Z,6.90
2022-07-28T01:22:37.852Z,6.90
2022-07-28T01:23:08.879Z,6.90
2022-07-28T01:23:39.875Z,6.90
2022-07-28T01:24:10.955Z,6.80
2022-07-28T01:24:41.807Z,6.80
2022-07-28T01:25:13.260Z,6.70
2022-07-28T01:25:48.061Z,6.70
2022-07-28T01:26:14.836Z,6.70
2022-07-28T01:26:46.135Z,6.70
2022-07-28T01:27:16.744Z,6.80
2022-07-28T01:27:47.751Z,6.80
2022-07-28T01:28:18.843Z,6.80
2022-07-28T01:28:49.868Z,6.70
2022-07-28T01:29:20.944Z,6.70
2022-07-28T01:29:51.846Z,6.70
2022-07-28T01:30:26.210Z,6.70
2022-07-28T01:30:53.984Z,6.70
2022-07-28T01:31:24.909Z,6.70
2022-07-28T01:31:55.936Z,6.80
2022-07-28T01:32:26.917Z,6.80
2022-07-28T01:32:57.815Z,6.80
2022-07-28T01:33:28.833Z,6.80
2022-07-28T01:33:59.888Z,6.80
2022-07-28T01:34:30.877Z,6.80
2022-07-28T01:35:02.432Z,6.80
2022-07-28T01:35:32.847Z,6.80
2022-07-28T01:36:03.872Z,6.80
2022-07-28T01:36:34.886Z,6.80
2022-07-28T01:37:05.948Z,6.80
2022-07-28T01:37:36.940Z,6.80
2022-07-28T01:38:07.930Z,6.80
2022-07-28T01:38:39.773Z,6.70
2022-07-28T01:39:09.855Z,6.70
2022-07-28T01:39:40.953Z,6.70
2022-07-28T01:40:12.180Z,6.70
2022-07-28T01:40:42.850Z,6.70
2022-07-28T01:41:13.888Z,6.70
2022-07-28T01:41:45.159Z,6.70
2022-07-28T01:42:15.975Z,6.70
2022-07-28T01:42:46.886Z,6.70
2022-07-28T01:43:17.882Z,6.70
2022-07-28T01:43:48.904Z,6.70
2022-07-28T01:44:19.966Z,6.70
2022-07-28T01:44:50.894Z,6.60
2022-07-28T01:45:22.393Z,6.60
2022-07-28T01:45:52.906Z,6.60
2022-07-28T01:46:23.975Z,6.60
2022-07-28T01:46:54.989Z,6.60
2022-07-28T01:47:25.959Z,6.60
2022-07-28T01:47:56.924Z,6.60
2022-07-28T01:48:27.877Z,6.60
2022-07-28T01:48:59.014Z,6.60
2022-07-28T01:49:29.941Z,6.60
2022-07-28T01:50:01.451Z,6.60
2022-07-28T01:50:32.048Z,6.60
2022-07-28T01:51:02.881Z,6.60
2022-07-28T01:51:33.934Z,6.60
2022-07-28T01:52:04.971Z,6.60
2022-07-28T01:52:36.017Z,6.50
2022-07-28T01:53:06.990Z,6.50
2022-07-28T01:53:38.303Z,6.65
2022-07-28T01:54:08.938Z,6.65
2022-07-28T01:54:39.982Z,6.65
2022-07-28T01:55:11.471Z,6.65
2022-07-28T01:55:41.912Z,6.65
2022-07-28T01:56:12.925Z,6.65
2022-07-28T01:56:43.999Z,6.65
2022-07-28T01:57:14.946Z,6.65
2022-07-28T01:57:46.158Z,6.65
2022-07-28T01:58:16.787Z,6.65
2022-07-28T01:58:47.981Z,6.65
2022-07-28T01:59:18.927Z,6.65
2022-07-28T01:59:49.949Z,6.65
2022-07-28T02:00:22.402Z,6.65
2022-07-28T02:00:52.091Z,6.65
2022-07-28T02:01:23.047Z,6.65
2022-07-28T02:01:54.072Z,6.56
2022-07-28T02:02:24.918Z,6.56
2022-07-28T02:02:56.039Z,6.56
2022-07-28T02:03:27.050Z,6.56
2022-07-28T02:03:57.915Z,6.56
2022-07-28T02:04:28.973Z,6.56
2022-07-28T02:05:00.007Z,6.46
2022-07-28T02:05:31.570Z,6.46
2022-07-28T02:06:02.011Z,6.46
2022-07-28T02:06:32.925Z,6.46
2022-07-28T02:07:03.944Z,6.46
2022-07-28T02:07:34.925Z,6.46
2022-07-28T02:08:06.002Z,6.46
2022-07-28T02:08:37.042Z,6.46
2022-07-28T02:09:07.990Z,6.46
2022-07-28T02:09:38.927Z,6.46
2022-07-28T02:10:11.764Z,6.46
2022-07-28T02:10:41.009Z,6.46
2022-07-28T02:11:12.046Z,6.46
2022-07-28T02:11:42.936Z,6.46
2022-07-28T02:12:13.945Z,6.46
2022-07-28T02:12:45.212Z,6.46
2022-07-28T02:13:15.967Z,6.46
2022-07-28T02:13:47.021Z,6.56
2022-07-28T02:14:18.362Z,6.56
2022-07-28T02:14:49.036Z,6.56
2022-07-28T02:15:20.463Z,6.56
2022-07-28T02:15:51.144Z,6.56
2022-07-28T02:16:22.124Z,6.46
2022-07-28T02:16:53.080Z,6.46
2022-07-28T02:17:23.977Z,6.46
2022-07-28T02:17:54.979Z,6.46
2022-07-28T02:18:26.067Z,6.46
2022-07-28T02:18:57.047Z,6.46
2022-07-28T02:19:27.970Z,6.46
2022-07-28T02:19:58.986Z,6.46
2022-07-28T02:20:30.374Z,6.46
2022-07-28T02:21:01.066Z,6.46
2022-07-28T02:21:32.095Z,6.46
2022-07-28T02:22:03.041Z,6.46
2022-07-28T02:22:34.063Z,6.36
2022-07-28T02:23:05.078Z,6.36
2022-07-28T02:23:35.979Z,6.36
2022-07-28T02:24:07.022Z,6.36
2022-07-28T02:24:38.083Z,6.36
2022-07-28T02:25:09.475Z,6.36
2022-07-28T02:25:40.056Z,6.36
2022-07-28T02:26:11.022Z,6.26
2022-07-28T02:26:42.032Z,6.26
2022-07-28T02:27:13.032Z,6.26
2022-07-28T02:27:44.056Z,6.16
2022-07-28T02:28:15.022Z,6.16
2022-07-28T02:28:46.498Z,6.06
2022-07-28T02:29:40.524Z,6.06
2022-07-28T02:30:19.594Z,5.96
2022-07-28T02:30:50.164Z,5.96
2022-07-28T02:31:21.277Z,5.96
2022-07-28T02:31:52.057Z,5.96
2022-07-28T02:32:27.216Z,5.96
2022-07-28T02:32:54.077Z,6.13
2022-07-28T02:33:57.886Z,6.13
2022-07-28T02:34:28.032Z,6.13
2022-07-28T02:34:58.091Z,6.13
2022-07-28T02:35:31.895Z,6.13
2022-07-28T02:36:00.094Z,6.13
2022-07-28T02:36:31.307Z,6.13
2022-07-28T02:37:02.107Z,6.13
2022-07-28T02:37:33.130Z,6.13
2022-07-28T02:38:04.034Z,6.13
2022-07-28T02:38:35.066Z,6.13
2022-07-28T02:39:06.150Z,6.13
2022-07-28T02:39:37.115Z,6.13
2022-07-28T02:40:08.473Z,6.13
2022-07-28T02:40:39.061Z,6.13
2022-07-28T02:41:10.039Z,6.13
2022-07-28T02:41:41.888Z,6.23
2022-07-28T02:42:12.134Z,6.23
2022-07-28T02:42:43.118Z,6.23
2022-07-28T02:43:14.144Z,6.23
2022-07-28T02:43:50.296Z,6.23
2022-07-28T02:44:16.747Z,6.23
2022-07-28T02:44:47.111Z,6.23
2022-07-28T02:45:19.060Z,6.23
2022-07-28T02:45:49.286Z,6.23
2022-07-28T02:46:20.257Z,6.23
2022-07-28T02:46:51.176Z,6.13
2022-07-28T02:47:22.138Z,6.13
2022-07-28T02:47:53.118Z,6.13
2022-07-28T02:48:24.100Z,6.13
2022-07-28T02:48:55.163Z,6.03
2022-07-28T02:49:26.149Z,6.03
2022-07-28T02:49:57.076Z,6.03
2022-07-28T02:50:28.576Z,6.03
2022-07-28T02:50:59.121Z,5.93
2022-07-28T02:51:30.165Z,5.93
2022-07-28T02:52:01.191Z,5.93
2022-07-28T02:52:32.271Z,5.83
2022-07-28T02:53:15.255Z,5.83
2022-07-28T02:53:34.177Z,5.83
2022-07-28T02:54:05.111Z,5.83
2022-07-28T02:54:36.098Z,5.83
2022-07-28T02:55:07.474Z,5.83
2022-07-28T02:55:38.196Z,5.83
2022-07-28T02:56:09.176Z,5.83
2022-07-28T02:56:40.252Z,5.93
2022-07-28T02:57:11.289Z,5.93
2022-07-28T02:57:42.174Z,5.93
2022-07-28T02:58:13.191Z,6.09
2022-07-28T02:58:44.113Z,6.09
2022-07-28T02:59:15.157Z,6.09
2022-07-28T02:59:46.543Z,6.09
2022-07-28T03:00:17.648Z,6.09
2022-07-28T03:00:48.023Z,6.19
2022-07-28T03:01:19.389Z,6.19
2022-07-28T03:01:50.304Z,6.19
2022-07-28T03:02:21.297Z,6.19
2022-07-28T03:02:52.262Z,6.19
2022-07-28T03:03:23.298Z,6.29
2022-07-28T03:03:55.417Z,6.29
2022-07-28T03:04:25.282Z,6.29
2022-07-28T03:04:56.395Z,6.29
2022-07-28T03:05:27.886Z,6.29
2022-07-28T03:05:58.233Z,6.29
2022-07-28T03:06:29.291Z,6.29
2022-07-28T03:07:00.324Z,6.29
2022-07-28T03:07:31.340Z,6.29
2022-07-28T03:08:02.297Z,6.29
2022-07-28T03:08:33.260Z,6.29
2022-07-28T03:09:04.302Z,6.29
2022-07-28T03:09:35.359Z,6.29
2022-07-28T03:10:06.690Z,6.29
2022-07-28T03:10:37.239Z,6.29
2022-07-28T03:11:08.341Z,6.29
2022-07-28T03:11:39.321Z,6.29
2022-07-28T03:12:10.362Z,6.29
2022-07-28T03:12:41.337Z,6.29
2022-07-28T03:13:13.055Z,6.29
2022-07-28T03:13:43.307Z,6.29
2022-07-28T03:14:14.584Z,6.29
2022-07-28T03:14:45.354Z,6.29
2022-07-28T03:15:16.839Z,6.29
2022-07-28T03:15:47.379Z,6.29
2022-07-28T03:16:18.398Z,6.29
2022-07-28T03:16:55.117Z,6.29
2022-07-28T03:17:20.468Z,6.29
2022-07-28T03:17:51.317Z,6.29
2022-07-28T03:18:22.318Z,6.29
2022-07-28T03:18:53.309Z,6.29
2022-07-28T03:19:24.343Z,6.29
2022-07-28T03:19:55.379Z,6.29
2022-07-28T03:20:27.515Z,6.29
2022-07-28T03:20:57.321Z,6.29
2022-07-28T03:21:28.295Z,6.29
2022-07-28T03:21:59.371Z,6.19
2022-07-28T03:22:30.271Z,6.19
2022-07-28T03:23:01.325Z,6.19
2022-07-28T03:23:32.434Z,6.19
2022-07-28T03:24:03.291Z,6.19
2022-07-28T03:24:34.282Z,6.19
2022-07-28T03:25:07.040Z,6.19
2022-07-28T03:25:36.371Z,6.19
2022-07-28T03:26:07.341Z,6.09
2022-07-28T03:26:38.379Z,6.09
2022-07-28T03:27:09.395Z,6.09
2022-07-28T03:27:40.359Z,6.09
2022-07-28T03:28:11.406Z,6.09
2022-07-28T03:28:42.358Z,6.09
2022-07-28T03:29:13.371Z,6.09
2022-07-28T03:29:44.312Z,6.09
2022-07-28T03:30:15.920Z,6.19
2022-07-28T03:30:46.599Z,6.19
2022-07-28T03:31:17.278Z,6.19
2022-07-28T03:31:48.213Z,6.19
2022-07-28T03:32:19.384Z,6.19
2022-07-28T03:32:50.356Z,6.19
2022-07-28T03:33:21.441Z,6.19
2022-07-28T03:33:52.357Z,6.19
2022-07-28T03:34:23.384Z,6.19
2022-07-28T03:34:54.302Z,6.19
2022-07-28T03:35:25.742Z,6.19
2022-07-28T03:35:56.374Z,6.19
2022-07-28T03:36:27.406Z,6.19
2022-07-28T03:36:58.396Z,6.19
2022-07-28T03:37:29.463Z,6.19
2022-07-28T03:38:00.373Z,6.19
2022-07-28T03:38:31.371Z,6.19
2022-07-28T03:39:02.371Z,6.19
2022-07-28T03:39:33.325Z,6.19
2022-07-28T03:40:04.754Z,6.19
2022-07-28T03:40:35.484Z,6.19
2022-07-28T03:41:06.418Z,6.19
2022-07-28T03:41:37.415Z,6.19
2022-07-28T03:42:08.439Z,6.19
2022-07-28T03:42:39.334Z,6.19
2022-07-28T03:43:10.395Z,6.19
2022-07-28T03:43:41.569Z,6.19
2022-07-28T03:44:12.844Z,6.19
2022-07-28T03:44:44.056Z,6.19
2022-07-28T03:45:14.796Z,6.19
2022-07-28T03:45:46.480Z,6.19
2022-07-28T03:46:16.590Z,6.19
2022-07-28T03:46:47.558Z,6.19
2022-07-28T03:47:18.269Z,6.19
2022-07-28T03:47:49.425Z,6.19
2022-07-28T03:48:20.432Z,6.19
2022-07-28T03:48:51.541Z,6.09
2022-07-28T03:49:22.585Z,6.09
2022-07-28T03:49:53.428Z,6.09
2022-07-28T03:50:26.920Z,6.09
2022-07-28T03:50:55.363Z,6.09
2022-07-28T03:51:26.457Z,6.09
2022-07-28T03:51:57.427Z,6.09
2022-07-28T03:52:28.457Z,6.09
2022-07-28T03:52:59.478Z,6.09
2022-07-28T03:53:30.527Z,6.09
2022-07-28T03:54:01.450Z,6.09
2022-07-28T03:54:32.519Z,6.09
2022-07-28T03:55:03.759Z,6.09
2022-07-28T03:55:34.473Z,6.09
2022-07-28T03:56:05.579Z,6.09
2022-07-28T03:56:36.514Z,6.19
2022-07-28T03:57:07.388Z,6.19
2022-07-28T03:57:38.365Z,6.19
2022-07-28T03:58:12.074Z,6.19
2022-07-28T03:58:40.541Z,6.29
2022-07-28T03:59:11.481Z,6.29
2022-07-28T03:59:42.455Z,6.29
2022-07-28T04:00:14.857Z,6.39
2022-07-28T04:00:44.495Z,6.39
2022-07-28T04:01:15.718Z,6.39
2022-07-28T04:01:46.699Z,6.39
2022-07-28T04:02:17.722Z,6.49
2022-07-28T04:02:48.494Z,6.49
2022-07-28T04:03:35.728Z,6.49
2022-07-28T04:03:50.491Z,6.59
2022-07-28T04:04:21.541Z,6.59
2022-07-28T04:04:52.499Z,6.59
2022-07-28T04:05:23.895Z,6.59
2022-07-28T04:05:54.508Z,6.52
2022-07-28T04:06:25.526Z,6.52
2022-07-28T04:06:56.572Z,6.52
2022-07-28T04:07:27.396Z,6.52
2022-07-28T04:07:58.464Z,6.62
2022-07-28T04:08:29.494Z,6.62
2022-07-28T04:09:00.513Z,6.62
2022-07-28T04:09:31.545Z,6.62
2022-07-28T04:10:02.979Z,6.72
2022-07-28T04:10:33.499Z,6.72
2022-07-28T04:11:04.543Z,6.82
2022-07-28T04:11:35.588Z,6.82
2022-07-28T04:12:06.561Z,6.82
2022-07-28T04:12:37.561Z,6.82
2022-07-28T04:13:08.448Z,6.82
2022-07-28T04:13:39.512Z,6.92
2022-07-28T04:14:16.207Z,6.92
2022-07-28T04:14:41.632Z,6.75
2022-07-28T04:15:12.918Z,7.02
2022-07-28T04:15:43.526Z,7.02
2022-07-28T04:16:15.936Z,7.02
2022-07-28T04:16:45.729Z,6.95
2022-07-28T04:17:16.703Z,7.05
2022-07-28T04:17:47.537Z,7.15
2022-07-28T04:18:18.367Z,7.15
2022-07-28T04:18:49.520Z,7.15
2022-07-28T04:19:20.578Z,7.05
2022-07-28T04:19:51.865Z,6.90
2022-07-28T04:20:22.893Z,6.90
2022-07-28T04:20:53.543Z,6.90
2022-07-28T04:21:24.467Z,6.90
2022-07-28T04:21:55.573Z,6.90
2022-07-28T04:22:26.510Z,6.90
2022-07-28T04:22:57.534Z,6.99
2022-07-28T04:23:28.546Z,6.83
2022-07-28T04:24:01.981Z,6.83
2022-07-28T04:24:30.611Z,6.83
2022-07-28T04:25:02.089Z,6.83
2022-07-28T04:25:32.671Z,6.83
2022-07-28T04:26:03.516Z,6.93
2022-07-28T04:26:34.548Z,6.93
2022-07-28T04:27:05.578Z,6.93
2022-07-28T04:27:36.606Z,6.93
2022-07-28T04:28:07.575Z,6.93
2022-07-28T04:28:38.590Z,7.02
2022-07-28T04:29:09.505Z,6.86
2022-07-28T04:29:40.589Z,6.86
2022-07-28T04:30:11.989Z,6.96
2022-07-28T04:30:44.074Z,6.96
2022-07-28T04:31:13.617Z,6.96
2022-07-28T04:31:44.455Z,6.96
2022-07-28T04:32:15.618Z,7.05
2022-07-28T04:32:46.591Z,7.05
2022-07-28T04:33:17.792Z,7.05
2022-07-28T04:33:48.439Z,7.05
2022-07-28T04:34:19.700Z,6.99
2022-07-28T04:34:50.586Z,6.99
2022-07-28T04:35:22.137Z,6.99
2022-07-28T04:35:52.620Z,6.99
2022-07-28T04:36:23.613Z,7.08
2022-07-28T04:36:54.515Z,7.08
2022-07-28T04:37:25.570Z,7.08
2022-07-28T04:37:56.596Z,7.08
2022-07-28T04:38:27.573Z,7.18
2022-07-28T04:38:58.617Z,7.18
2022-07-28T04:39:29.642Z,7.18
2022-07-28T04:40:01.070Z,7.11
2022-07-28T04:40:31.587Z,7.11
2022-07-28T04:41:02.524Z,7.21
2022-07-28T04:41:33.566Z,7.21
2022-07-28T04:42:04.619Z,7.21
2022-07-28T04:42:35.586Z,7.21
2022-07-28T04:43:06.585Z,7.31
2022-07-28T04:43:37.570Z,7.41
2022-07-28T04:44:08.611Z,7.51
2022-07-28T04:44:39.629Z,7.60
2022-07-28T04:45:11.176Z,7.60
2022-07-28T04:45:53.085Z,7.60
2022-07-28T04:46:15.098Z,7.62
2022-07-28T04:46:43.691Z,7.82
2022-07-28T04:47:14.557Z,7.93
2022-07-28T04:47:46.523Z,8.03
2022-07-28T04:48:16.682Z,8.22
2022-07-28T04:48:47.711Z,8.32
2022-07-28T04:49:18.534Z,8.25
2022-07-28T04:49:49.621Z,8.07
2022-07-28T04:50:21.001Z,8.07
2022-07-28T04:50:51.642Z,7.88
2022-07-28T04:51:22.573Z,7.88
2022-07-28T04:51:53.600Z,7.87
2022-07-28T04:52:24.661Z,7.77
2022-07-28T04:52:55.587Z,7.77
2022-07-28T04:53:26.620Z,7.68
2022-07-28T04:53:57.597Z,7.68
2022-07-28T04:54:28.645Z,7.68
2022-07-28T04:54:59.667Z,7.58
2022-07-28T04:55:31.021Z,7.58
2022-07-28T04:56:01.638Z,7.58
2022-07-28T04:56:32.652Z,7.58
2022-07-28T04:57:04.642Z,7.58
2022-07-28T04:57:34.652Z,7.76
2022-07-28T04:58:05.598Z,7.76
2022-07-28T04:58:36.581Z,7.76
2022-07-28T04:59:07.601Z,7.76
2022-07-28T04:59:38.654Z,7.76
2022-07-28T05:00:10.327Z,7.86
2022-07-28T05:00:40.761Z,7.86
2022-07-28T05:01:11.767Z,7.86
2022-07-28T05:01:42.828Z,7.86
2022-07-28T05:02:13.715Z,7.86
2022-07-28T05:02:44.609Z,7.95
2022-07-28T05:03:15.713Z,7.95
2022-07-28T05:03:46.798Z,7.95
2022-07-28T05:04:18.488Z,8.05
2022-07-28T05:04:48.588Z,8.05
2022-07-28T05:05:20.403Z,8.15
2022-07-28T05:05:53.848Z,7.97
2022-07-28T05:06:21.680Z,8.07
2022-07-28T05:06:52.660Z,8.07
2022-07-28T05:07:23.672Z,8.07
2022-07-28T05:08:01.061Z,8.07
2022-07-28T05:08:26.595Z,8.16
2022-07-28T05:08:56.667Z,8.16
2022-07-28T05:09:27.624Z,8.16
2022-07-28T05:09:58.642Z,8.16
2022-07-28T05:10:30.063Z,8.16
2022-07-28T05:11:00.759Z,8.08
2022-07-28T05:11:31.740Z,8.08
2022-07-28T05:12:02.710Z,8.18
2022-07-28T05:12:33.623Z,8.18
2022-07-28T05:13:04.664Z,8.18
2022-07-28T05:13:35.747Z,8.09
2022-07-28T05:14:06.733Z,8.09
2022-07-28T05:14:37.692Z,8.19
2022-07-28T05:15:09.114Z,8.19
2022-07-28T05:15:39.731Z,8.29
2022-07-28T05:16:10.705Z,8.29
2022-07-28T05:16:41.775Z,8.09
2022-07-28T05:17:12.713Z,8.19
2022-07-28T05:17:43.779Z,8.29
2022-07-28T05:18:14.659Z,8.29
2022-07-28T05:18:45.718Z,8.29
2022-07-28T05:19:17.734Z,8.38
2022-07-28T05:19:47.730Z,8.38
2022-07-28T05:20:18.998Z,8.48
2022-07-28T05:20:49.753Z,8.48
2022-07-28T05:21:22.436Z,8.30
2022-07-28T05:21:51.769Z,8.39
2022-07-28T05:22:22.697Z,8.39
2022-07-28T05:22:53.754Z,8.39
2022-07-28T05:23:24.781Z,8.39
2022-07-28T05:23:55.803Z,8.20
2022-07-28T05:24:26.802Z,8.29
2022-07-28T05:24:57.682Z,8.29
2022-07-28T05:25:29.587Z,8.29
2022-07-28T05:25:59.782Z,8.39
2022-07-28T05:26:30.741Z,8.39
2022-07-28T05:27:01.705Z,8.20
2022-07-28T05:27:32.921Z,7.99
2022-07-28T05:28:03.767Z,8.20
2022-07-28T05:28:34.681Z,7.79
2022-07-28T05:29:05.766Z,8.08
2022-07-28T05:29:46.693Z,8.08
2022-07-28T05:30:08.130Z,7.89
2022-07-28T05:30:38.746Z,8.18
2022-07-28T05:31:09.679Z,8.08
2022-07-28T05:31:40.828Z,8.08
2022-07-28T05:32:17.448Z,8.08
2022-07-28T05:32:42.870Z,8.08
2022-07-28T05:33:13.822Z,8.08
2022-07-28T05:33:44.863Z,7.88
2022-07-28T05:34:16.070Z,7.98
2022-07-28T05:34:46.863Z,7.98
2022-07-28T05:35:18.573Z,7.98
2022-07-28T05:35:48.860Z,7.98
2022-07-28T05:36:20.147Z,7.98
2022-07-28T05:36:50.833Z,7.98
2022-07-28T05:37:21.948Z,8.08
2022-07-28T05:37:52.950Z,8.08
2022-07-28T05:38:23.836Z,8.08
2022-07-28T05:38:54.858Z,8.08
2022-07-28T05:39:25.882Z,8.08
2022-07-28T05:39:56.951Z,8.17
2022-07-28T05:40:28.321Z,7.96
2022-07-28T05:40:58.867Z,8.17
2022-07-28T05:41:29.857Z,7.96
2022-07-28T05:42:00.887Z,7.96
2022-07-28T05:42:31.970Z,7.96
2022-07-28T05:43:02.938Z,8.27
2022-07-28T05:43:33.828Z,8.27
2022-07-28T05:44:04.883Z,8.15
2022-07-28T05:44:38.475Z,8.15
2022-07-28T05:45:16.823Z,8.15
2022-07-28T05:45:38.027Z,7.95
2022-07-28T05:46:08.881Z,8.25
2022-07-28T05:46:39.877Z,8.25
2022-07-28T05:47:10.944Z,8.04
2022-07-28T05:47:42.016Z,8.14
2022-07-28T05:48:12.884Z,8.35
2022-07-28T05:48:44.008Z,8.14
2022-07-28T05:49:15.005Z,8.14
2022-07-28T05:49:45.955Z,8.14
2022-07-28T05:50:17.830Z,8.14
2022-07-28T05:50:48.864Z,8.02
2022-07-28T05:51:18.936Z,8.02
2022-07-28T05:51:50.117Z,8.02
2022-07-28T05:52:20.985Z,8.02
2022-07-28T05:52:51.967Z,8.02
2022-07-28T05:53:22.924Z,8.23
2022-07-28T05:53:53.846Z,7.81
2022-07-28T05:54:25.050Z,8.02
2022-07-28T05:54:55.899Z,8.02
2022-07-28T05:55:27.482Z,8.02
2022-07-28T05:56:01.177Z,8.02
2022-07-28T05:56:28.911Z,8.02
2022-07-28T05:56:59.942Z,8.12
2022-07-28T05:57:30.963Z,8.12
2022-07-28T05:58:02.070Z,8.12
2022-07-28T05:58:33.033Z,8.42
2022-07-28T05:59:03.878Z,8.00
2022-07-28T05:59:34.909Z,8.19
2022-07-28T06:00:06.595Z,7.98
2022-07-28T06:00:37.005Z,8.19
2022-07-28T06:01:08.186Z,8.19
2022-07-28T06:01:39.045Z,7.98
2022-07-28T06:02:10.063Z,7.98
2022-07-28T06:02:41.029Z,7.98
2022-07-28T06:03:12.041Z,7.98
2022-07-28T06:03:42.964Z,7.89
2022-07-28T06:04:27.806Z,7.89
2022-07-28T06:04:45.004Z,7.89
2022-07-28T06:05:16.373Z,7.89
2022-07-28T06:06:00.504Z,7.89
2022-07-28T06:06:48.883Z,7.98
2022-07-28T06:07:20.011Z,8.08
2022-07-28T06:07:51.011Z,8.08
2022-07-28T06:08:22.120Z,7.86
2022-07-28T06:08:52.899Z,7.95
2022-07-28T06:09:23.955Z,7.95
2022-07-28T06:09:54.957Z,7.95
2022-07-28T06:10:27.785Z,8.05
2022-07-28T06:10:57.059Z,8.05
2022-07-28T06:11:28.051Z,8.05
2022-07-28T06:11:58.936Z,7.82
2022-07-28T06:12:29.949Z,7.82
2022-07-28T06:13:01.047Z,7.82
2022-07-28T06:13:32.011Z,7.82
2022-07-28T06:14:03.025Z,7.82
2022-07-28T06:14:34.012Z,7.82
2022-07-28T06:15:05.564Z,7.60
2022-07-28T06:15:36.068Z,7.92
2022-07-28T06:16:12.660Z,8.01
2022-07-28T06:16:38.173Z,8.11
2022-07-28T06:17:09.050Z,8.11
2022-07-28T06:17:40.022Z,8.11
2022-07-28T06:18:11.014Z,7.88
2022-07-28T06:18:42.103Z,7.88
2022-07-28T06:19:13.053Z,7.88
2022-07-28T06:19:44.064Z,7.88
2022-07-28T06:20:15.516Z,7.79
2022-07-28T06:20:46.134Z,7.79
2022-07-28T06:21:17.545Z,7.79
2022-07-28T06:21:48.148Z,7.79
2022-07-28T06:22:19.819Z,7.79
2022-07-28T06:22:50.036Z,8.01
2022-07-28T06:23:21.089Z,7.79
2022-07-28T06:23:52.150Z,8.01
2022-07-28T06:24:23.086Z,7.88
2022-07-28T06:24:53.979Z,7.88
2022-07-28T06:25:25.467Z,7.88
2022-07-28T06:25:56.126Z,7.98
2022-07-28T06:26:27.089Z,7.74
2022-07-28T06:26:58.106Z,7.74
2022-07-28T06:27:29.088Z,7.60
2022-07-28T06:28:00.149Z,7.60
2022-07-28T06:28:31.023Z,7.79
2022-07-28T06:29:02.080Z,7.88
2022-07-28T06:29:33.216Z,7.98
2022-07-28T06:30:04.481Z,7.98
2022-07-28T06:30:35.022Z,7.98
2022-07-28T06:31:06.102Z,7.83
2022-07-28T06:31:37.131Z,8.02
2022-07-28T06:32:14.009Z,8.21
2022-07-28T06:32:39.050Z,8.21
2022-07-28T06:33:13.968Z,8.05
2022-07-28T06:33:41.090Z,8.05
2022-07-28T06:34:12.561Z,7.96
2022-07-28T06:34:43.079Z,8.21
2022-07-28T06:35:14.539Z,8.16
2022-07-28T06:35:50.781Z,8.12
2022-07-28T06:36:16.198Z,7.79
2022-07-28T06:36:47.187Z,7.79
2022-07-28T06:37:18.212Z,7.79
2022-07-28T06:37:48.992Z,7.79
2022-07-28T06:38:20.080Z,7.79
2022-07-28T06:38:51.061Z,7.79
2022-07-28T06:39:22.108Z,7.88
2022-07-28T06:39:53.101Z,7.88
2022-07-28T06:40:24.542Z,7.64
2022-07-28T06:40:55.115Z,7.74
2022-07-28T06:41:26.137Z,7.58
2022-07-28T06:41:57.135Z,7.83
2022-07-28T06:42:28.076Z,7.83
2022-07-28T06:42:59.128Z,7.83
2022-07-28T06:43:30.698Z,7.98
2022-07-28T06:44:01.637Z,7.74
2022-07-28T06:44:54.856Z,7.74
2022-07-28T06:45:03.470Z,7.74
2022-07-28T06:45:34.114Z,7.74
2022-07-28T06:46:05.103Z,7.83
2022-07-28T06:46:36.197Z,7.93
2022-07-28T06:47:07.208Z,7.68
2022-07-28T06:47:38.116Z,7.53
2022-07-28T06:48:09.154Z,7.77
2022-07-28T06:48:40.245Z,7.72
2022-07-28T06:49:11.498Z,7.91
2022-07-28T06:49:42.270Z,7.91
2022-07-28T06:50:24.845Z,7.91
2022-07-28T06:50:44.066Z,8.14
2022-07-28T06:51:15.120Z,8.40
2022-07-28T06:51:46.181Z,8.05
2022-07-28T06:52:17.272Z,8.05
2022-07-28T06:52:48.421Z,8.05
2022-07-28T06:53:19.007Z,7.81
2022-07-28T06:53:50.640Z,8.05
2022-07-28T06:54:21.205Z,7.96